createdAt,value
2019-02-05T00:00:35.259Z,8.50
2019-02-05T00:03:02.180Z,8.55
2019-02-05T00:05:29.083Z,7.72
2019-02-05T00:07:56.002Z,8.93
2019-02-05T00:10:22.802Z,9.08
2019-02-05T00:12:49.623Z,8.88
2019-02-05T00:15:16.434Z,8.53
2019-02-05T00:17:43.232Z,8.65
2019-02-05T00:20:10.247Z,8.95
2019-02-05T00:22:37.051Z,9.23
2019-02-05T00:25:04.564Z,8.90
2019-02-05T00:27:31.380Z,8.93
2019-02-05T00:29:58.183Z,8.78
2019-02-05T00:32:24.979Z,9.78
2019-02-05T00:34:51.682Z,9.35
2019-02-05T00:37:19.091Z,9.60
2019-02-05T00:39:45.795Z,8.08
2019-02-05T00:42:12.495Z,8.83
2019-02-05T00:44:39.202Z,9.55
2019-02-05T00:47:05.898Z,9.13
2019-02-05T00:49:32.604Z,9.45
2019-02-05T00:51:59.319Z,9.13
2019-02-05T00:54:26.339Z,9.23
2019-02-05T00:56:53.035Z,9.55
2019-02-05T00:59:20.146Z,9.73
2019-02-05T01:01:46.850Z,9.48
2019-02-05T01:04:13.852Z,8.13
2019-02-05T01:06:40.760Z,9.80
2019-02-05T01:09:08.903Z,9.55
2019-02-05T01:11:36.091Z,10.30
2019-02-05T01:14:03.811Z,10.50
2019-02-05T01:16:30.526Z,10.28
2019-02-05T01:18:57.223Z,10.43
2019-02-05T01:21:23.927Z,9.90
2019-02-05T01:23:50.624Z,9.85
2019-02-05T01:26:28.705Z,10.60
2019-02-05T01:28:45.939Z,10.28
2019-02-05T01:31:13.440Z,8.93
2019-02-05T01:33:40.160Z,10.45
2019-02-05T01:36:06.952Z,10.25
2019-02-05T01:38:33.654Z,10.28
2019-02-05T01:41:00.559Z,10.72
2019-02-05T01:43:27.343Z,10.55
2019-02-05T01:45:54.047Z,10.25
2019-02-05T01:48:20.839Z,10.32
2019-02-05T01:50:47.547Z,10.43
2019-02-05T01:53:14.253Z,10.45
2019-02-05T01:55:41.155Z,10.35
2019-02-05T01:58:08.136Z,11.35
2019-02-05T02:00:37.682Z,10.53
2019-02-05T02:03:05.143Z,10.60
2019-02-05T02:05:31.947Z,9.93
2019-02-05T02:07:59.150Z,10.35
2019-02-05T02:10:27.932Z,10.93
2019-02-05T02:12:54.936Z,10.70
2019-02-05T02:15:21.932Z,10.85
2019-02-05T02:17:48.730Z,10.53
2019-02-05T02:20:16.707Z,10.90
2019-02-05T02:22:44.394Z,10.45
2019-02-05T02:25:12.575Z,10.78
2019-02-05T02:27:39.479Z,10.70
2019-02-05T02:30:16.187Z,11.53
2019-02-05T02:32:42.999Z,10.88
2019-02-05T02:35:09.913Z,11.03
2019-02-05T02:37:36.622Z,11.90
2019-02-05T02:40:03.736Z,11.28
2019-02-05T02:42:30.450Z,11.10
2019-02-05T02:44:57.151Z,11.45
2019-02-05T02:47:23.871Z,11.10
2019-02-05T02:49:50.579Z,12.00
2019-02-05T02:52:17.373Z,10.63
2019-02-05T02:54:44.080Z,12.47
2019-02-05T02:57:10.790Z,11.88
2019-02-05T02:59:38.095Z,11.40
2019-02-05T03:02:05.011Z,11.50
2019-02-05T03:04:31.822Z,11.75
2019-02-05T03:06:58.528Z,11.45
2019-02-05T03:09:25.253Z,11.28
2019-02-05T03:11:52.043Z,12.15
2019-02-05T03:14:18.756Z,12.68
2019-02-05T03:16:45.470Z,13.40
2019-02-05T03:19:12.163Z,12.55
2019-02-05T03:21:39.584Z,12.63
2019-02-05T03:24:06.287Z,12.85
2019-02-05T03:26:32.995Z,13.55
2019-02-05T03:28:59.702Z,12.18
2019-02-05T03:31:26.408Z,12.33
2019-02-05T03:33:53.122Z,13.38
2019-02-05T03:36:19.832Z,12.40
2019-02-05T03:38:46.543Z,12.63
2019-02-05T03:41:13.373Z,12.98
2019-02-05T03:43:40.686Z,13.45
2019-02-05T03:46:12.515Z,13.32
2019-02-05T03:48:41.679Z,14.38
2019-02-05T03:51:53.180Z,15.25
2019-02-05T03:54:37.216Z,13.70
2019-02-05T03:57:16.187Z,14.35
2019-02-05T04:00:19.475Z,13.35
2019-02-05T04:02:58.583Z,14.30
2019-02-05T04:05:58.693Z,14.47
2019-02-05T04:09:04.343Z,14.83
2019-02-05T04:12:01.585Z,14.33
2019-02-05T04:14:47.184Z,14.60
2019-02-05T04:17:59.248Z,15.40
2019-02-05T04:20:59.527Z,14.63
2019-02-05T04:23:58.115Z,14.60
2019-02-05T04:27:15.240Z,15.23
2019-02-05T04:30:24.525Z,14.55
2019-02-05T04:33:16.357Z,14.23
2019-02-05T04:36:17.039Z,16.02
2019-02-05T04:39:07.396Z,14.80
2019-02-05T04:41:48.003Z,16.30
2019-02-05T04:44:55.027Z,15.15
2019-02-05T04:48:06.776Z,16.62
2019-02-05T04:51:03.625Z,15.45
2019-02-05T04:53:44.723Z,15.30
2019-02-05T04:56:31.234Z,15.05
2019-02-05T04:59:43.139Z,15.93
2019-02-05T05:02:34.011Z,16.35
2019-02-05T05:05:32.818Z,16.75
2019-02-05T05:08:21.462Z,16.12
2019-02-05T05:10:48.180Z,15.25
2019-02-05T05:13:14.980Z,17.32
2019-02-05T05:15:41.878Z,16.73
2019-02-05T05:18:09.223Z,16.30
2019-02-05T05:20:36.141Z,15.80
2019-02-05T05:23:02.953Z,16.75
2019-02-05T05:25:30.659Z,16.85
2019-02-05T05:28:09.717Z,16.77
2019-02-05T05:30:28.950Z,17.17
2019-02-05T05:32:55.771Z,15.98
2019-02-05T05:35:22.679Z,16.87
2019-02-05T05:37:49.791Z,15.90
2019-02-05T05:40:16.588Z,17.60
2019-02-05T05:42:43.307Z,17.17
2019-02-05T05:45:12.436Z,17.85
2019-02-05T05:47:39.387Z,16.27
2019-02-05T05:50:08.862Z,16.95
2019-02-05T05:52:35.580Z,16.95
2019-02-05T05:55:02.769Z,17.52
2019-02-05T05:57:29.696Z,17.05
2019-02-05T05:59:56.403Z,17.02
2019-02-05T06:02:23.222Z,16.97
2019-02-05T06:04:49.926Z,16.57
2019-02-05T06:07:16.634Z,17.12
2019-02-05T06:09:43.371Z,17.45
2019-02-05T06:12:10.080Z,16.60
2019-02-05T06:14:36.798Z,17.67
2019-02-05T06:17:04.203Z,17.02
2019-02-05T06:19:30.923Z,17.17
2019-02-05T06:21:57.733Z,18.05
2019-02-05T06:24:24.446Z,16.02
2019-02-05T06:26:51.364Z,17.20
2019-02-05T06:29:18.071Z,17.70
2019-02-05T06:31:44.879Z,16.70
2019-02-05T06:34:11.615Z,16.50
2019-02-05T06:36:39.127Z,16.93
2019-02-05T06:39:07.711Z,17.17
2019-02-05T06:41:34.684Z,15.38
2019-02-05T06:44:01.907Z,16.65
2019-02-05T06:46:28.710Z,17.52
2019-02-05T06:48:55.423Z,16.50
2019-02-05T06:51:22.132Z,16.95
2019-02-05T06:53:48.863Z,16.87
2019-02-05T06:56:16.177Z,18.48
2019-02-05T06:58:46.367Z,16.65
2019-02-05T07:01:11.802Z,18.20
2019-02-05T07:03:38.721Z,18.45
2019-02-05T07:06:05.877Z,17.02
2019-02-05T07:08:32.737Z,17.30
2019-02-05T07:10:59.498Z,17.52
2019-02-05T07:13:26.730Z,17.85
2019-02-05T07:15:53.695Z,17.90
2019-02-05T07:18:20.544Z,19.15
2019-02-05T07:20:47.673Z,18.70
2019-02-05T07:23:14.633Z,19.55
2019-02-05T07:25:41.769Z,18.20
2019-02-05T07:28:08.728Z,17.92
2019-02-05T07:30:35.689Z,17.50
2019-02-05T07:33:02.957Z,19.87
2019-02-05T07:35:29.821Z,19.02
2019-02-05T07:37:57.283Z,18.37
2019-02-05T07:40:24.333Z,18.52
2019-02-05T07:42:51.392Z,18.12
2019-02-05T07:45:20.026Z,17.50
2019-02-05T07:47:47.079Z,19.37
2019-02-05T07:50:16.521Z,20.25
2019-02-05T07:52:43.721Z,19.55
2019-02-05T07:55:10.929Z,18.95
2019-02-05T07:57:37.893Z,18.45
2019-02-05T08:00:09.622Z,18.90
2019-02-05T08:09:56.469Z,20.65
2019-02-05T08:12:23.337Z,20.32
2019-02-05T08:14:50.298Z,20.27
2019-02-05T08:17:17.158Z,20.30
2019-02-05T08:19:44.135Z,21.20
2019-02-05T08:22:11.501Z,20.40
2019-02-05T08:24:38.338Z,21.03
2019-02-05T08:27:05.294Z,20.50
2019-02-05T08:29:32.158Z,19.40
2019-02-05T08:31:59.123Z,21.97
2019-02-05T08:34:26.350Z,20.15
2019-02-05T08:36:53.201Z,21.97
2019-02-05T08:39:20.161Z,22.30
2019-02-05T08:41:47.410Z,20.73
2019-02-05T08:44:14.570Z,22.60
2019-02-05T08:46:41.426Z,23.25
2019-02-05T08:49:08.785Z,21.90
2019-02-05T08:51:35.653Z,22.27
2019-02-05T08:54:02.923Z,22.27
2019-02-05T08:56:29.765Z,23.87
2019-02-05T08:58:56.621Z,23.90
2019-02-05T09:01:23.589Z,22.82
2019-02-05T09:03:50.554Z,23.07
2019-02-05T09:06:17.418Z,24.10
2019-02-05T09:08:44.369Z,24.00
2019-02-05T09:11:11.421Z,25.07
2019-02-05T09:13:38.292Z,24.43
2019-02-05T09:16:05.142Z,25.07
2019-02-05T09:18:32.107Z,25.60
2019-02-05T09:20:58.945Z,23.43
2019-02-05T09:23:25.801Z,24.53
2019-02-05T09:25:53.161Z,26.37
2019-02-05T09:28:20.022Z,27.67
2019-02-05T09:30:46.972Z,29.57
2019-02-05T09:33:14.258Z,28.10
2019-02-05T09:35:41.658Z,27.83
2019-02-05T09:38:08.709Z,28.03
2019-02-05T09:40:35.677Z,27.53
2019-02-05T09:43:03.017Z,29.33
2019-02-05T09:45:30.562Z,28.77
2019-02-05T09:47:58.373Z,28.30
2019-02-05T09:50:25.433Z,29.67
2019-02-05T09:52:52.384Z,28.07
2019-02-05T09:55:19.454Z,27.70
2019-02-05T09:57:46.522Z,27.23
2019-02-05T10:00:19.770Z,26.20
2019-02-05T10:02:46.721Z,26.67
2019-02-05T10:05:16.321Z,27.13
2019-02-05T10:07:43.277Z,28.70
2019-02-05T10:10:11.941Z,29.87
2019-02-05T10:12:38.902Z,30.33
2019-02-05T10:15:09.321Z,31.47
2019-02-05T10:17:36.277Z,33.27
2019-02-05T10:20:04.821Z,31.97
2019-02-05T10:22:31.897Z,33.07
2019-02-05T10:24:59.173Z,33.70
2019-02-05T10:27:26.041Z,32.83
2019-02-05T10:29:59.278Z,30.73
2019-02-05T10:32:21.554Z,30.97
2019-02-05T10:34:48.410Z,31.23
2019-02-05T10:37:15.369Z,27.33
2019-02-05T10:39:42.313Z,26.50
2019-02-05T10:42:09.377Z,26.43
2019-02-05T10:44:36.639Z,25.80
2019-02-05T10:47:03.799Z,26.57
2019-02-05T10:49:30.677Z,26.57
2019-02-05T10:51:57.529Z,26.40
2019-02-05T10:54:24.384Z,25.60
2019-02-05T10:56:51.233Z,25.33
2019-02-05T10:59:18.109Z,26.47
2019-02-05T11:01:44.965Z,29.07
2019-02-05T11:04:12.147Z,28.73
2019-02-05T11:06:39.013Z,25.80
2019-02-05T11:09:08.445Z,26.40
2019-02-05T11:11:35.969Z,25.57
2019-02-05T11:14:03.225Z,26.93
2019-02-05T11:16:30.189Z,26.17
2019-02-05T11:18:57.033Z,26.43
2019-02-05T11:21:23.904Z,25.57
2019-02-05T11:23:50.847Z,24.77
2019-02-05T11:26:17.713Z,25.27
2019-02-05T11:28:44.625Z,24.50
2019-02-05T11:31:11.575Z,25.63
2019-02-05T11:33:38.529Z,26.63
2019-02-05T11:36:05.482Z,25.43
2019-02-05T11:38:32.359Z,25.87
2019-02-05T11:40:59.321Z,25.33
2019-02-05T11:43:26.163Z,26.03
2019-02-05T11:45:53.721Z,25.07
2019-02-05T11:48:20.776Z,25.50
2019-02-05T11:50:47.633Z,25.27
2019-02-05T11:53:14.483Z,24.20
2019-02-05T11:55:41.577Z,24.57
2019-02-05T11:58:08.702Z,24.40
2019-02-05T12:01:07.222Z,23.17
2019-02-05T12:03:34.077Z,22.53
2019-02-05T12:06:01.047Z,22.63
2019-02-05T12:08:27.997Z,22.07
2019-02-05T12:10:55.197Z,22.37
2019-02-05T12:13:22.281Z,23.00
2019-02-05T12:15:49.237Z,22.73
2019-02-05T12:18:16.286Z,23.80
2019-02-05T12:20:43.542Z,23.77
2019-02-05T12:23:10.509Z,23.23
2019-02-05T12:25:37.353Z,23.80
2019-02-05T12:28:04.415Z,22.43
2019-02-05T12:30:43.845Z,23.53
2019-02-05T12:33:02.048Z,23.40
2019-02-05T12:35:29.162Z,21.43
2019-02-05T12:37:56.244Z,21.30
2019-02-05T12:40:23.608Z,23.27
2019-02-05T12:42:50.584Z,21.43
2019-02-05T12:45:37.398Z,22.37
2019-02-05T17:40:41.221Z,17.10
2019-02-05T17:43:08.177Z,16.83
2019-02-05T17:45:36.815Z,16.55
2019-02-05T17:49:37.942Z,16.63
2019-02-05T17:52:05.093Z,16.53
2019-02-05T17:54:31.849Z,17.57
2019-02-05T17:56:58.745Z,17.33
2019-02-05T17:59:25.518Z,17.37
2019-02-05T18:01:52.375Z,17.45
2019-02-05T18:04:19.224Z,16.93
2019-02-05T18:06:46.681Z,19.05
2019-02-05T18:09:13.548Z,18.93
2019-02-05T18:11:40.335Z,20.23
2019-02-05T18:14:07.533Z,20.63
2019-02-05T18:16:34.393Z,21.67
2019-02-05T18:19:01.153Z,22.20
2019-02-05T18:21:28.213Z,23.65
2019-02-05T18:23:55.341Z,23.98
2019-02-05T18:26:22.177Z,23.15
2019-02-05T18:28:48.952Z,23.40
2019-02-05T18:31:16.013Z,23.60
2019-02-05T18:33:42.885Z,23.77
2019-02-05T18:36:10.137Z,23.67
2019-02-05T18:38:37.253Z,24.37
2019-02-05T18:41:04.225Z,24.37
2019-02-05T18:43:31.739Z,25.68
2019-02-05T18:45:58.629Z,27.67
2019-02-05T18:48:26.924Z,29.90
2019-02-05T18:50:53.954Z,29.12
2019-02-05T18:53:20.934Z,29.50
2019-02-05T18:55:48.137Z,31.77
2019-02-05T18:58:15.001Z,29.92
2019-02-05T19:00:42.712Z,30.72
2019-02-05T19:03:15.610Z,29.35
2019-02-05T19:05:38.633Z,30.62
2019-02-05T19:08:06.211Z,29.60
2019-02-05T19:10:33.281Z,27.75
2019-02-05T19:13:00.452Z,28.05
2019-02-05T19:15:29.250Z,28.80
2019-02-05T19:17:56.114Z,28.52
2019-02-05T19:20:25.110Z,29.63
2019-02-05T19:22:52.071Z,27.15
2019-02-05T19:25:39.461Z,27.05
2019-02-05T19:28:06.919Z,26.33
2019-02-05T19:30:34.744Z,26.30
2019-02-05T19:33:02.256Z,27.30
2019-02-05T19:35:29.109Z,26.05
2019-02-05T19:37:55.957Z,26.50
2019-02-05T19:40:22.814Z,26.30
2019-02-05T19:42:49.677Z,29.32
2019-02-05T19:45:42.771Z,29.63
2019-02-05T19:48:15.335Z,27.73
2019-02-05T19:50:42.282Z,27.10
2019-02-05T19:53:09.582Z,27.33
2019-02-05T19:55:36.456Z,25.88
2019-02-05T19:58:03.849Z,26.13
2019-02-05T20:00:30.698Z,28.23
2019-02-05T20:02:57.554Z,27.00
2019-02-05T20:05:24.503Z,26.43
2019-02-05T20:07:51.758Z,27.83
2019-02-05T20:10:19.130Z,26.20
2019-02-05T20:12:46.093Z,26.40
2019-02-05T20:15:13.557Z,27.37
2019-02-05T20:17:40.753Z,27.95
2019-02-05T20:20:09.855Z,27.87
2019-02-05T20:22:36.726Z,27.67
2019-02-05T20:25:04.738Z,26.50
2019-02-05T20:27:31.509Z,27.07
2019-02-05T20:29:58.381Z,28.98
2019-02-05T20:32:27.960Z,27.58
2019-02-05T20:34:53.922Z,26.85
2019-02-05T20:37:20.677Z,27.55
2019-02-05T20:39:47.447Z,27.52
2019-02-05T20:42:14.481Z,27.40
2019-02-05T20:44:41.472Z,28.25
2019-02-05T20:47:08.325Z,29.50
2019-02-05T20:49:35.421Z,27.67
2019-02-05T20:52:02.299Z,26.60
2019-02-05T20:54:29.264Z,32.23
2019-02-05T20:56:56.137Z,27.02
2019-02-05T20:59:23.256Z,26.48
2019-02-05T21:01:50.457Z,27.90
2019-02-05T21:04:17.434Z,29.00
2019-02-05T21:06:45.197Z,28.47
2019-02-05T21:09:20.654Z,27.62
2019-02-05T21:11:47.525Z,27.50
2019-02-05T21:14:14.494Z,26.35
2019-02-05T21:16:41.482Z,27.85
2019-02-05T21:19:08.432Z,26.93
2019-02-05T21:21:35.305Z,27.00
2019-02-05T21:24:02.077Z,26.73
2019-02-05T21:26:28.933Z,26.77
2019-02-05T21:28:55.830Z,25.35
2019-02-05T21:31:22.610Z,26.02
2019-02-05T21:33:49.471Z,25.57
2019-02-05T21:36:16.225Z,25.72
2019-02-05T21:38:45.387Z,28.60
2019-02-05T21:41:11.970Z,26.60
2019-02-05T21:43:38.733Z,26.48
2019-02-05T21:46:05.685Z,26.62
2019-02-05T21:48:32.433Z,27.07
2019-02-05T21:50:59.549Z,26.70
2019-02-05T21:53:26.504Z,25.92
2019-02-05T21:55:53.353Z,26.62
2019-02-05T21:58:20.221Z,26.60
2019-02-05T22:00:47.209Z,25.48
2019-02-05T22:03:14.437Z,23.73
2019-02-05T22:05:41.593Z,25.05
2019-02-05T22:08:09.039Z,26.93
2019-02-05T22:10:36.028Z,24.85
2019-02-05T22:13:03.773Z,24.00
2019-02-05T22:15:32.130Z,25.12
2019-02-05T22:17:59.404Z,22.82
2019-02-05T22:20:26.324Z,24.60
2019-02-05T22:22:56.039Z,23.47
2019-02-05T22:25:24.169Z,22.77
2019-02-05T22:27:51.021Z,23.57
2019-02-05T22:30:20.104Z,22.70
2019-02-05T22:32:47.064Z,21.30
2019-02-05T22:35:15.353Z,18.60
2019-02-05T22:37:42.617Z,19.87
2019-02-05T22:40:10.181Z,19.75
2019-02-05T22:42:37.046Z,19.67
2019-02-05T22:45:06.341Z,19.27
2019-02-05T22:47:33.213Z,18.50
2019-02-05T22:50:00.333Z,19.98
2019-02-05T22:52:27.144Z,18.70
2019-02-05T22:54:53.993Z,19.57
2019-02-05T22:57:20.862Z,18.12
2019-02-05T22:59:47.705Z,18.55
2019-02-05T23:02:14.786Z,16.95
2019-02-05T23:05:22.582Z,18.20
2019-02-05T23:07:49.841Z,18.67
2019-02-05T23:11:03.173Z,17.12
2019-02-05T23:13:23.923Z,16.93
2019-02-05T23:15:51.769Z,17.25
2019-02-05T23:18:18.725Z,16.57
2019-02-05T23:20:45.629Z,16.70
2019-02-05T23:23:12.567Z,16.48
2019-02-05T23:25:39.275Z,16.55
2019-02-05T23:28:06.300Z,16.05
2019-02-05T23:30:33.199Z,15.63
2019-02-05T23:33:00.113Z,15.35
2019-02-05T23:35:27.416Z,16.12
2019-02-05T23:37:54.319Z,14.47
2019-02-05T23:40:21.107Z,14.15
2019-02-05T23:42:47.819Z,14.15
2019-02-05T23:45:14.711Z,13.88
2019-02-05T23:47:41.424Z,14.47
2019-02-05T23:50:10.651Z,13.53
2019-02-05T23:52:37.735Z,13.90
2019-02-05T23:55:06.559Z,13.68
2019-02-05T23:57:33.258Z,12.90
2019-02-05T23:59:59.966Z,13.50
